sensor_id;sensor_type;location;lat;lon;timestamp;P1;durP1;ratioP1;P2;durP2;ratioP2
8694;SDS011;65580;49.446;6.854;2023-06-26T00:02:06;6.38;;;3.85;;
8694;SDS011;65580;49.446;6.854;2023-06-26T00:06:09;6.07;;;3.78;;
8694;SDS011;65580;49.446;6.854;2023-06-26T00:10:13;6.80;;;4.25;;
8694;SDS011;65580;49.446;6.854;2023-06-26T00:14:16;7.88;;;4.00;;
8694;SDS011;65580;49.446;6.854;2023-06-26T00:18:20;8.38;;;4.40;;
8694;SDS011;65580;49.446;6.854;2023-06-26T00:22:24;7.47;;;3.80;;
8694;SDS011;65580;49.446;6.854;2023-06-26T00:26:28;7.53;;;4.03;;
8694;SDS011;65580;49.446;6.854;2023-06-26T00:30:31;7.22;;;4.10;;
8694;SDS011;65580;49.446;6.854;2023-06-26T00:34:34;6.85;;;3.85;;
8694;SDS011;65580;49.446;6.854;2023-06-26T00:38:37;6.47;;;3.83;;
8694;SDS011;65580;49.446;6.854;2023-06-26T00:42:42;6.78;;;4.20;;
8694;SDS011;65580;49.446;6.854;2023-06-26T00:46:45;6.68;;;3.83;;
8694;SDS011;65580;49.446;6.854;2023-06-26T00:50:47;6.82;;;4.13;;
8694;SDS011;65580;49.446;6.854;2023-06-26T00:54:50;8.18;;;3.95;;
8694;SDS011;65580;49.446;6.854;2023-06-26T01:02:58;6.55;;;4.15;;
8694;SDS011;65580;49.446;6.854;2023-06-26T01:07:02;5.78;;;3.97;;
8694;SDS011;65580;49.446;6.854;2023-06-26T01:11:06;7.25;;;4.40;;
8694;SDS011;65580;49.446;6.854;2023-06-26T01:15:10;6.95;;;3.83;;
8694;SDS011;65580;49.446;6.854;2023-06-26T01:19:19;6.38;;;3.78;;
8694;SDS011;65580;49.446;6.854;2023-06-26T01:23:29;6.30;;;3.70;;
8694;SDS011;65580;49.446;6.854;2023-06-26T01:27:34;7.40;;;3.72;;
8694;SDS011;65580;49.446;6.854;2023-06-26T01:31:37;6.25;;;3.83;;
8694;SDS011;65580;49.446;6.854;2023-06-26T01:35:40;6.20;;;3.72;;
8694;SDS011;65580;49.446;6.854;2023-06-26T01:39:43;7.43;;;4.22;;
8694;SDS011;65580;49.446;6.854;2023-06-26T01:43:53;7.03;;;4.40;;
8694;SDS011;65580;49.446;6.854;2023-06-26T01:48:07;9.02;;;4.55;;
8694;SDS011;65580;49.446;6.854;2023-06-26T01:52:14;7.35;;;4.28;;
8694;SDS011;65580;49.446;6.854;2023-06-26T01:56:22;7.82;;;3.72;;
8694;SDS011;65580;49.446;6.854;2023-06-26T02:00:27;7.95;;;3.92;;
8694;SDS011;65580;49.446;6.854;2023-06-26T02:04:30;5.80;;;3.80;;
8694;SDS011;65580;49.446;6.854;2023-06-26T02:08:33;6.97;;;3.95;;
8694;SDS011;65580;49.446;6.854;2023-06-26T02:12:36;7.18;;;3.97;;
8694;SDS011;65580;49.446;6.854;2023-06-26T02:16:41;7.53;;;3.72;;
8694;SDS011;65580;49.446;6.854;2023-06-26T02:20:43;5.93;;;3.50;;
8694;SDS011;65580;49.446;6.854;2023-06-26T02:24:46;6.70;;;4.10;;
8694;SDS011;65580;49.446;6.854;2023-06-26T02:28:49;5.50;;;3.70;;
8694;SDS011;65580;49.446;6.854;2023-06-26T02:32:54;5.90;;;3.67;;
8694;SDS011;65580;49.446;6.854;2023-06-26T02:36:57;7.35;;;3.85;;
8694;SDS011;65580;49.446;6.854;2023-06-26T02:41:02;7.18;;;3.60;;
8694;SDS011;65580;49.446;6.854;2023-06-26T02:45:06;7.40;;;4.38;;
8694;SDS011;65580;49.446;6.854;2023-06-26T02:49:11;6.40;;;3.95;;
8694;SDS011;65580;49.446;6.854;2023-06-26T02:53:14;6.82;;;4.03;;
8694;SDS011;65580;49.446;6.854;2023-06-26T02:57:18;6.45;;;3.90;;
8694;SDS011;65580;49.446;6.854;2023-06-26T03:01:21;8.45;;;4.10;;
8694;SDS011;65580;49.446;6.854;2023-06-26T03:05:25;7.20;;;4.18;;
8694;SDS011;65580;49.446;6.854;2023-06-26T03:09:28;9.98;;;4.75;;
8694;SDS011;65580;49.446;6.854;2023-06-26T03:13:31;7.95;;;4.43;;
8694;SDS011;65580;49.446;6.854;2023-06-26T03:17:34;8.00;;;4.63;;
8694;SDS011;65580;49.446;6.854;2023-06-26T03:21:38;6.18;;;4.00;;
8694;SDS011;65580;49.446;6.854;2023-06-26T03:25:42;6.35;;;3.95;;
8694;SDS011;65580;49.446;6.854;2023-06-26T03:29:44;7.50;;;4.07;;
8694;SDS011;65580;49.446;6.854;2023-06-26T03:33:47;5.97;;;3.78;;
8694;SDS011;65580;49.446;6.854;2023-06-26T03:37:52;8.82;;;4.45;;
8694;SDS011;65580;49.446;6.854;2023-06-26T03:41:55;6.07;;;3.70;;
8694;SDS011;65580;49.446;6.854;2023-06-26T03:46:01;6.25;;;3.92;;
8694;SDS011;65580;49.446;6.854;2023-06-26T03:50:05;6.97;;;4.20;;
8694;SDS011;65580;49.446;6.854;2023-06-26T03:54:09;8.73;;;4.50;;
8694;SDS011;65580;49.446;6.854;2023-06-26T03:58:12;7.95;;;4.35;;
8694;SDS011;65580;49.446;6.854;2023-06-26T04:02:15;6.55;;;3.92;;
8694;SDS011;65580;49.446;6.854;2023-06-26T04:06:18;8.88;;;4.68;;
8694;SDS011;65580;49.446;6.854;2023-06-26T04:10:22;7.82;;;4.20;;
8694;SDS011;65580;49.446;6.854;2023-06-26T04:14:25;7.43;;;4.22;;
8694;SDS011;65580;49.446;6.854;2023-06-26T04:18:28;7.40;;;4.18;;
8694;SDS011;65580;49.446;6.854;2023-06-26T04:22:31;8.63;;;4.75;;
8694;SDS011;65580;49.446;6.854;2023-06-26T04:26:35;13.02;;;5.35;;
8694;SDS011;65580;49.446;6.854;2023-06-26T04:30:38;8.65;;;4.22;;
8694;SDS011;65580;49.446;6.854;2023-06-26T04:34:41;10.75;;;4.50;;
8694;SDS011;65580;49.446;6.854;2023-06-26T04:42:50;7.07;;;3.63;;
8694;SDS011;65580;49.446;6.854;2023-06-26T04:46:53;9.45;;;5.07;;
8694;SDS011;65580;49.446;6.854;2023-06-26T04:50:56;7.78;;;4.45;;
8694;SDS011;65580;49.446;6.854;2023-06-26T04:55:00;10.00;;;5.05;;
8694;SDS011;65580;49.446;6.854;2023-06-26T04:59:04;10.55;;;5.45;;
8694;SDS011;65580;49.446;6.854;2023-06-26T05:03:07;9.60;;;5.13;;
8694;SDS011;65580;49.446;6.854;2023-06-26T05:07:11;8.05;;;5.03;;
8694;SDS011;65580;49.446;6.854;2023-06-26T05:11:14;7.70;;;4.68;;
8694;SDS011;65580;49.446;6.854;2023-06-26T05:15:18;8.88;;;4.63;;
8694;SDS011;65580;49.446;6.854;2023-06-26T05:19:21;9.65;;;4.97;;
8694;SDS011;65580;49.446;6.854;2023-06-26T05:23:24;8.55;;;4.97;;
8694;SDS011;65580;49.446;6.854;2023-06-26T05:27:28;10.90;;;5.82;;
8694;SDS011;65580;49.446;6.854;2023-06-26T05:35:37;8.85;;;4.55;;
8694;SDS011;65580;49.446;6.854;2023-06-26T05:43:43;8.95;;;4.43;;
8694;SDS011;65580;49.446;6.854;2023-06-26T05:47:47;8.38;;;4.60;;
8694;SDS011;65580;49.446;6.854;2023-06-26T05:51:52;11.52;;;4.78;;
8694;SDS011;65580;49.446;6.854;2023-06-26T05:55:55;8.15;;;4.40;;
8694;SDS011;65580;49.446;6.854;2023-06-26T05:59:59;8.98;;;4.00;;
8694;SDS011;65580;49.446;6.854;2023-06-26T06:04:04;9.30;;;4.70;;
8694;SDS011;65580;49.446;6.854;2023-06-26T06:08:07;10.35;;;4.10;;
8694;SDS011;65580;49.446;6.854;2023-06-26T06:12:10;8.27;;;4.05;;
8694;SDS011;65580;49.446;6.854;2023-06-26T06:16:13;7.93;;;3.80;;
8694;SDS011;65580;49.446;6.854;2023-06-26T06:20:17;8.02;;;4.32;;
8694;SDS011;65580;49.446;6.854;2023-06-26T06:24:21;6.63;;;4.07;;
8694;SDS011;65580;49.446;6.854;2023-06-26T06:28:24;7.72;;;3.92;;
8694;SDS011;65580;49.446;6.854;2023-06-26T06:32:27;7.13;;;3.72;;
8694;SDS011;65580;49.446;6.854;2023-06-26T06:36:31;6.07;;;3.70;;
8694;SDS011;65580;49.446;6.854;2023-06-26T06:40:34;6.38;;;4.05;;
8694;SDS011;65580;49.446;6.854;2023-06-26T06:44:37;7.60;;;3.85;;
8694;SDS011;65580;49.446;6.854;2023-06-26T06:48:40;8.25;;;3.20;;
8694;SDS011;65580;49.446;6.854;2023-06-26T06:52:44;4.35;;;2.92;;
8694;SDS011;65580;49.446;6.854;2023-06-26T06:56:47;6.65;;;3.00;;
8694;SDS011;65580;49.446;6.854;2023-06-26T07:00:50;7.10;;;3.10;;
8694;SDS011;65580;49.446;6.854;2023-06-26T07:04:53;4.68;;;2.85;;
8694;SDS011;65580;49.446;6.854;2023-06-26T07:08:58;4.60;;;2.90;;
8694;SDS011;65580;49.446;6.854;2023-06-26T07:13:01;5.00;;;2.63;;
8694;SDS011;65580;49.446;6.854;2023-06-26T07:17:04;4.35;;;2.65;;
8694;SDS011;65580;49.446;6.854;2023-06-26T07:21:08;4.38;;;2.72;;
8694;SDS011;65580;49.446;6.854;2023-06-26T07:25:13;6.22;;;2.55;;
8694;SDS011;65580;49.446;6.854;2023-06-26T07:29:16;3.95;;;2.17;;
8694;SDS011;65580;49.446;6.854;2023-06-26T07:33:18;5.57;;;2.50;;
8694;SDS011;65580;49.446;6.854;2023-06-26T07:37:22;3.78;;;2.17;;
8694;SDS011;65580;49.446;6.854;2023-06-26T07:41:27;4.97;;;1.67;;
8694;SDS011;65580;49.446;6.854;2023-06-26T07:45:31;4.88;;;1.63;;
8694;SDS011;65580;49.446;6.854;2023-06-26T07:49:34;3.25;;;1.92;;
8694;SDS011;65580;49.446;6.854;2023-06-26T07:53:37;3.53;;;2.20;;
8694;SDS011;65580;49.446;6.854;2023-06-26T07:57:41;3.38;;;1.95;;
8694;SDS011;65580;49.446;6.854;2023-06-26T08:01:44;3.67;;;2.10;;
8694;SDS011;65580;49.446;6.854;2023-06-26T08:05:47;2.75;;;1.92;;
8694;SDS011;65580;49.446;6.854;2023-06-26T08:09:50;3.05;;;2.00;;
8694;SDS011;65580;49.446;6.854;2023-06-26T08:13:55;3.03;;;1.80;;
8694;SDS011;65580;49.446;6.854;2023-06-26T08:17:58;7.18;;;1.90;;
8694;SDS011;65580;49.446;6.854;2023-06-26T08:22:01;5.57;;;1.70;;
8694;SDS011;65580;49.446;6.854;2023-06-26T08:26:04;6.07;;;1.75;;
8694;SDS011;65580;49.446;6.854;2023-06-26T08:30:08;4.57;;;1.80;;
8694;SDS011;65580;49.446;6.854;2023-06-26T08:34:12;5.68;;;1.80;;
8694;SDS011;65580;49.446;6.854;2023-06-26T08:38:15;2.63;;;1.80;;
8694;SDS011;65580;49.446;6.854;2023-06-26T08:42:22;3.13;;;1.60;;
8694;SDS011;65580;49.446;6.854;2023-06-26T08:46:26;2.03;;;1.50;;
8694;SDS011;65580;49.446;6.854;2023-06-26T08:50:30;6.63;;;1.77;;
8694;SDS011;65580;49.446;6.854;2023-06-26T08:54:39;4.38;;;1.80;;
8694;SDS011;65580;49.446;6.854;2023-06-26T08:58:45;2.08;;;1.52;;
8694;SDS011;65580;49.446;6.854;2023-06-26T09:02:50;4.95;;;1.60;;
8694;SDS011;65580;49.446;6.854;2023-06-26T09:06:53;2.05;;;1.50;;
8694;SDS011;65580;49.446;6.854;2023-06-26T09:10:55;2.72;;;1.35;;
8694;SDS011;65580;49.446;6.854;2023-06-26T09:14:58;3.67;;;1.70;;
8694;SDS011;65580;49.446;6.854;2023-06-26T09:19:05;3.40;;;1.60;;
8694;SDS011;65580;49.446;6.854;2023-06-26T09:23:12;2.13;;;1.58;;
8694;SDS011;65580;49.446;6.854;2023-06-26T09:27:15;4.50;;;1.58;;
8694;SDS011;65580;49.446;6.854;2023-06-26T09:31:18;6.70;;;1.60;;
8694;SDS011;65580;49.446;6.854;2023-06-26T09:35:43;6.53;;;1.65;;
8694;SDS011;65580;49.446;6.854;2023-06-26T09:39:46;4.30;;;1.60;;
8694;SDS011;65580;49.446;6.854;2023-06-26T09:43:49;5.63;;;1.70;;
8694;SDS011;65580;49.446;6.854;2023-06-26T09:47:53;3.35;;;1.70;;
8694;SDS011;65580;49.446;6.854;2023-06-26T09:51:57;5.30;;;1.67;;
8694;SDS011;65580;49.446;6.854;2023-06-26T09:56:06;4.57;;;1.77;;
8694;SDS011;65580;49.446;6.854;2023-06-26T10:00:10;9.27;;;2.00;;
8694;SDS011;65580;49.446;6.854;2023-06-26T10:04:14;3.85;;;2.00;;
8694;SDS011;65580;49.446;6.854;2023-06-26T10:08:18;5.45;;;2.05;;
8694;SDS011;65580;49.446;6.854;2023-06-26T10:12:22;5.10;;;2.00;;
8694;SDS011;65580;49.446;6.854;2023-06-26T10:16:29;4.47;;;2.00;;
8694;SDS011;65580;49.446;6.854;2023-06-26T10:20:34;5.60;;;1.70;;
8694;SDS011;65580;49.446;6.854;2023-06-26T10:24:39;4.82;;;1.80;;
8694;SDS011;65580;49.446;6.854;2023-06-26T10:28:42;7.45;;;1.75;;
8694;SDS011;65580;49.446;6.854;2023-06-26T10:32:46;3.35;;;1.50;;
8694;SDS011;65580;49.446;6.854;2023-06-26T10:36:57;3.33;;;1.50;;
8694;SDS011;65580;49.446;6.854;2023-06-26T10:41:03;4.88;;;1.70;;
8694;SDS011;65580;49.446;6.854;2023-06-26T10:45:14;4.43;;;1.70;;
8694;SDS011;65580;49.446;6.854;2023-06-26T10:49:17;5.03;;;1.60;;
8694;SDS011;65580;49.446;6.854;2023-06-26T10:53:23;3.97;;;1.50;;
8694;SDS011;65580;49.446;6.854;2023-06-26T10:57:30;3.28;;;1.60;;
8694;SDS011;65580;49.446;6.854;2023-06-26T11:01:36;6.03;;;1.80;;
8694;SDS011;65580;49.446;6.854;2023-06-26T11:05:43;4.80;;;1.75;;
8694;SDS011;65580;49.446;6.854;2023-06-26T11:09:56;8.25;;;1.40;;
8694;SDS011;65580;49.446;6.854;2023-06-26T11:14:01;3.55;;;1.50;;
8694;SDS011;65580;49.446;6.854;2023-06-26T11:18:05;3.00;;;1.40;;
8694;SDS011;65580;49.446;6.854;2023-06-26T11:22:08;4.15;;;1.60;;
8694;SDS011;65580;49.446;6.854;2023-06-26T11:26:15;8.32;;;1.80;;
8694;SDS011;65580;49.446;6.854;2023-06-26T11:30:24;3.30;;;1.33;;
8694;SDS011;65580;49.446;6.854;2023-06-26T11:34:31;5.35;;;1.50;;
8694;SDS011;65580;49.446;6.854;2023-06-26T11:38:36;2.50;;;1.50;;
8694;SDS011;65580;49.446;6.854;2023-06-26T11:42:39;5.93;;;1.48;;
8694;SDS011;65580;49.446;6.854;2023-06-26T11:46:43;4.20;;;1.50;;
8694;SDS011;65580;49.446;6.854;2023-06-26T11:50:50;3.15;;;1.48;;
8694;SDS011;65580;49.446;6.854;2023-06-26T11:54:53;3.50;;;1.55;;
8694;SDS011;65580;49.446;6.854;2023-06-26T11:58:57;4.15;;;1.42;;
8694;SDS011;65580;49.446;6.854;2023-06-26T12:03:03;5.50;;;1.30;;
8694;SDS011;65580;49.446;6.854;2023-06-26T12:07:07;4.03;;;1.30;;
8694;SDS011;65580;49.446;6.854;2023-06-26T12:11:12;10.27;;;1.50;;
8694;SDS011;65580;49.446;6.854;2023-06-26T12:15:16;4.20;;;1.10;;
8694;SDS011;65580;49.446;6.854;2023-06-26T12:19:23;4.90;;;1.55;;
8694;SDS011;65580;49.446;6.854;2023-06-26T12:23:31;4.50;;;1.40;;
8694;SDS011;65580;49.446;6.854;2023-06-26T12:27:35;4.90;;;1.20;;
8694;SDS011;65580;49.446;6.854;2023-06-26T12:31:39;4.25;;;1.23;;
8694;SDS011;65580;49.446;6.854;2023-06-26T12:35:44;4.20;;;1.40;;
8694;SDS011;65580;49.446;6.854;2023-06-26T12:39:48;4.90;;;1.50;;
8694;SDS011;65580;49.446;6.854;2023-06-26T12:43:55;3.38;;;1.20;;
8694;SDS011;65580;49.446;6.854;2023-06-26T12:48:06;1.73;;;1.08;;
8694;SDS011;65580;49.446;6.854;2023-06-26T12:52:12;5.82;;;1.10;;
8694;SDS011;65580;49.446;6.854;2023-06-26T12:56:15;4.78;;;1.17;;
8694;SDS011;65580;49.446;6.854;2023-06-26T13:00:19;6.22;;;1.20;;
8694;SDS011;65580;49.446;6.854;2023-06-26T13:04:22;2.92;;;1.20;;
8694;SDS011;65580;49.446;6.854;2023-06-26T13:08:26;3.60;;;1.08;;
8694;SDS011;65580;49.446;6.854;2023-06-26T13:12:30;3.95;;;1.20;;
8694;SDS011;65580;49.446;6.854;2023-06-26T13:16:33;3.25;;;1.20;;
8694;SDS011;65580;49.446;6.854;2023-06-26T13:20:36;4.38;;;1.30;;
8694;SDS011;65580;49.446;6.854;2023-06-26T13:24:42;4.35;;;1.17;;
8694;SDS011;65580;49.446;6.854;2023-06-26T13:28:45;2.55;;;1.25;;
8694;SDS011;65580;49.446;6.854;2023-06-26T13:32:47;4.78;;;1.10;;
8694;SDS011;65580;49.446;6.854;2023-06-26T13:36:50;8.52;;;1.25;;
8694;SDS011;65580;49.446;6.854;2023-06-26T13:40:56;3.33;;;1.40;;
8694;SDS011;65580;49.446;6.854;2023-06-26T13:44:59;5.18;;;1.20;;
8694;SDS011;65580;49.446;6.854;2023-06-26T13:49:12;5.78;;;1.00;;
8694;SDS011;65580;49.446;6.854;2023-06-26T13:53:15;4.63;;;1.30;;
8694;SDS011;65580;49.446;6.854;2023-06-26T13:57:19;4.85;;;1.30;;
8694;SDS011;65580;49.446;6.854;2023-06-26T14:01:23;3.28;;;1.17;;
8694;SDS011;65580;49.446;6.854;2023-06-26T14:05:26;4.80;;;1.40;;
8694;SDS011;65580;49.446;6.854;2023-06-26T14:09:35;3.58;;;1.30;;
8694;SDS011;65580;49.446;6.854;2023-06-26T14:13:39;4.30;;;1.45;;
8694;SDS011;65580;49.446;6.854;2023-06-26T14:17:42;5.18;;;1.27;;
8694;SDS011;65580;49.446;6.854;2023-06-26T14:21:45;3.40;;;1.30;;
8694;SDS011;65580;49.446;6.854;2023-06-26T14:25:48;1.90;;;1.05;;
8694;SDS011;65580;49.446;6.854;2023-06-26T14:29:52;4.43;;;1.00;;
8694;SDS011;65580;49.446;6.854;2023-06-26T14:33:55;5.35;;;1.35;;
8694;SDS011;65580;49.446;6.854;2023-06-26T14:38:00;3.70;;;1.40;;
8694;SDS011;65580;49.446;6.854;2023-06-26T14:42:04;5.43;;;1.40;;
8694;SDS011;65580;49.446;6.854;2023-06-26T14:46:09;2.72;;;1.30;;
8694;SDS011;65580;49.446;6.854;2023-06-26T14:50:13;6.25;;;1.40;;
8694;SDS011;65580;49.446;6.854;2023-06-26T14:54:16;4.50;;;1.25;;
8694;SDS011;65580;49.446;6.854;2023-06-26T14:58:19;3.72;;;1.20;;
8694;SDS011;65580;49.446;6.854;2023-06-26T15:02:23;4.93;;;1.23;;
8694;SDS011;65580;49.446;6.854;2023-06-26T15:06:26;4.93;;;1.40;;
8694;SDS011;65580;49.446;6.854;2023-06-26T15:10:29;2.78;;;1.10;;
8694;SDS011;65580;49.446;6.854;2023-06-26T15:14:34;3.55;;;1.13;;
8694;SDS011;65580;49.446;6.854;2023-06-26T15:18:39;3.58;;;1.30;;
8694;SDS011;65580;49.446;6.854;2023-06-26T15:22:43;3.45;;;1.30;;
8694;SDS011;65580;49.446;6.854;2023-06-26T15:26:45;3.75;;;1.30;;
8694;SDS011;65580;49.446;6.854;2023-06-26T15:30:48;3.67;;;1.30;;
8694;SDS011;65580;49.446;6.854;2023-06-26T15:34:53;5.65;;;1.33;;
8694;SDS011;65580;49.446;6.854;2023-06-26T15:38:56;5.38;;;1.27;;
8694;SDS011;65580;49.446;6.854;2023-06-26T15:42:58;5.70;;;1.50;;
8694;SDS011;65580;49.446;6.854;2023-06-26T15:47:01;4.38;;;1.33;;
8694;SDS011;65580;49.446;6.854;2023-06-26T15:51:05;4.93;;;1.40;;
8694;SDS011;65580;49.446;6.854;2023-06-26T15:55:08;6.35;;;1.50;;
8694;SDS011;65580;49.446;6.854;2023-06-26T15:59:11;7.38;;;1.45;;
8694;SDS011;65580;49.446;6.854;2023-06-26T16:03:16;6.07;;;1.40;;
8694;SDS011;65580;49.446;6.854;2023-06-26T16:07:20;4.40;;;1.40;;
8694;SDS011;65580;49.446;6.854;2023-06-26T16:11:25;7.40;;;1.50;;
8694;SDS011;65580;49.446;6.854;2023-06-26T16:15:28;3.53;;;1.20;;
8694;SDS011;65580;49.446;6.854;2023-06-26T16:19:31;7.90;;;1.63;;
8694;SDS011;65580;49.446;6.854;2023-06-26T16:23:35;4.60;;;1.33;;
8694;SDS011;65580;49.446;6.854;2023-06-26T16:27:40;3.40;;;1.13;;
8694;SDS011;65580;49.446;6.854;2023-06-26T16:31:44;4.10;;;1.25;;
8694;SDS011;65580;49.446;6.854;2023-06-26T16:35:47;8.48;;;2.03;;
8694;SDS011;65580;49.446;6.854;2023-06-26T16:39:51;5.47;;;1.50;;
8694;SDS011;65580;49.446;6.854;2023-06-26T16:43:54;6.40;;;1.50;;
8694;SDS011;65580;49.446;6.854;2023-06-26T16:47:57;4.63;;;1.30;;
8694;SDS011;65580;49.446;6.854;2023-06-26T16:52:01;4.40;;;1.38;;
8694;SDS011;65580;49.446;6.854;2023-06-26T16:56:16;5.38;;;1.55;;
8694;SDS011;65580;49.446;6.854;2023-06-26T17:00:21;3.83;;;1.30;;
8694;SDS011;65580;49.446;6.854;2023-06-26T17:04:24;4.15;;;1.40;;
8694;SDS011;65580;49.446;6.854;2023-06-26T17:08:27;5.57;;;1.38;;
8694;SDS011;65580;49.446;6.854;2023-06-26T17:12:32;5.22;;;1.40;;
8694;SDS011;65580;49.446;6.854;2023-06-26T17:16:35;3.47;;;1.38;;
8694;SDS011;65580;49.446;6.854;2023-06-26T17:20:38;4.47;;;1.20;;
8694;SDS011;65580;49.446;6.854;2023-06-26T17:24:41;5.63;;;1.30;;
8694;SDS011;65580;49.446;6.854;2023-06-26T17:28:45;3.65;;;1.20;;
8694;SDS011;65580;49.446;6.854;2023-06-26T17:32:48;4.68;;;1.27;;
8694;SDS011;65580;49.446;6.854;2023-06-26T17:36:51;3.55;;;1.20;;
8694;SDS011;65580;49.446;6.854;2023-06-26T17:40:54;4.55;;;1.40;;
8694;SDS011;65580;49.446;6.854;2023-06-26T17:44:59;2.45;;;1.27;;
8694;SDS011;65580;49.446;6.854;2023-06-26T17:49:01;3.38;;;1.23;;
8694;SDS011;65580;49.446;6.854;2023-06-26T17:53:04;5.18;;;1.33;;
8694;SDS011;65580;49.446;6.854;2023-06-26T17:57:08;4.47;;;1.33;;
8694;SDS011;65580;49.446;6.854;2023-06-26T18:01:13;3.70;;;1.35;;
8694;SDS011;65580;49.446;6.854;2023-06-26T18:05:16;2.90;;;1.08;;
8694;SDS011;65580;49.446;6.854;2023-06-26T18:09:19;4.60;;;1.38;;
8694;SDS011;65580;49.446;6.854;2023-06-26T18:13:21;3.20;;;1.15;;
8694;SDS011;65580;49.446;6.854;2023-06-26T18:17:28;5.18;;;1.23;;
8694;SDS011;65580;49.446;6.854;2023-06-26T18:21:31;4.00;;;1.45;;
8694;SDS011;65580;49.446;6.854;2023-06-26T18:25:34;3.53;;;1.30;;
8694;SDS011;65580;49.446;6.854;2023-06-26T18:29:37;3.83;;;1.30;;
8694;SDS011;65580;49.446;6.854;2023-06-26T18:33:41;3.17;;;1.20;;
8694;SDS011;65580;49.446;6.854;2023-06-26T18:37:45;5.32;;;1.30;;
8694;SDS011;65580;49.446;6.854;2023-06-26T18:41:50;3.72;;;1.20;;
8694;SDS011;65580;49.446;6.854;2023-06-26T18:45:53;3.45;;;1.20;;
8694;SDS011;65580;49.446;6.854;2023-06-26T18:54:01;6.63;;;1.20;;
8694;SDS011;65580;49.446;6.854;2023-06-26T18:58:05;6.03;;;1.40;;
8694;SDS011;65580;49.446;6.854;2023-06-26T19:06:13;2.85;;;1.15;;
8694;SDS011;65580;49.446;6.854;2023-06-26T19:10:16;4.68;;;1.40;;
8694;SDS011;65580;49.446;6.854;2023-06-26T19:14:19;4.88;;;1.20;;
8694;SDS011;65580;49.446;6.854;2023-06-26T19:18:22;5.40;;;1.45;;
8694;SDS011;65580;49.446;6.854;2023-06-26T19:22:27;2.28;;;1.23;;
8694;SDS011;65580;49.446;6.854;2023-06-26T19:26:32;5.00;;;1.38;;
8694;SDS011;65580;49.446;6.854;2023-06-26T19:30:36;3.83;;;1.17;;
8694;SDS011;65580;49.446;6.854;2023-06-26T19:34:39;3.50;;;1.38;;
8694;SDS011;65580;49.446;6.854;2023-06-26T19:42:46;3.38;;;1.13;;
8694;SDS011;65580;49.446;6.854;2023-06-26T19:46:49;4.72;;;1.38;;
8694;SDS011;65580;49.446;6.854;2023-06-26T19:50:52;5.03;;;1.50;;
8694;SDS011;65580;49.446;6.854;2023-06-26T19:54:57;40.10;;;16.52;;
8694;SDS011;65580;49.446;6.854;2023-06-26T19:58:59;5.90;;;1.38;;
8694;SDS011;65580;49.446;6.854;2023-06-26T20:03:02;2.97;;;1.17;;
8694;SDS011;65580;49.446;6.854;2023-06-26T20:07:06;3.10;;;1.30;;
8694;SDS011;65580;49.446;6.854;2023-06-26T20:11:10;2.13;;;1.10;;
8694;SDS011;65580;49.446;6.854;2023-06-26T20:15:13;3.83;;;1.40;;
8694;SDS011;65580;49.446;6.854;2023-06-26T20:19:15;2.60;;;1.40;;
8694;SDS011;65580;49.446;6.854;2023-06-26T20:23:19;4.15;;;1.23;;
8694;SDS011;65580;49.446;6.854;2023-06-26T20:27:24;5.57;;;1.30;;
8694;SDS011;65580;49.446;6.854;2023-06-26T20:31:27;4.88;;;1.40;;
8694;SDS011;65580;49.446;6.854;2023-06-26T20:35:30;4.53;;;1.30;;
8694;SDS011;65580;49.446;6.854;2023-06-26T20:39:33;3.15;;;1.27;;
8694;SDS011;65580;49.446;6.854;2023-06-26T20:43:37;3.20;;;1.40;;
8694;SDS011;65580;49.446;6.854;2023-06-26T20:47:41;2.60;;;1.15;;
8694;SDS011;65580;49.446;6.854;2023-06-26T20:51:45;4.88;;;1.30;;
8694;SDS011;65580;49.446;6.854;2023-06-26T20:55:48;3.72;;;1.30;;
8694;SDS011;65580;49.446;6.854;2023-06-26T20:59:53;2.53;;;1.30;;
8694;SDS011;65580;49.446;6.854;2023-06-26T21:03:56;5.05;;;1.50;;
8694;SDS011;65580;49.446;6.854;2023-06-26T21:07:59;3.67;;;1.40;;
8694;SDS011;65580;49.446;6.854;2023-06-26T21:12:03;4.30;;;1.60;;
8694;SDS011;65580;49.446;6.854;2023-06-26T21:16:07;4.10;;;1.50;;
8694;SDS011;65580;49.446;6.854;2023-06-26T21:20:10;2.60;;;1.40;;
8694;SDS011;65580;49.446;6.854;2023-06-26T21:28:16;5.28;;;1.60;;
8694;SDS011;65580;49.446;6.854;2023-06-26T21:32:20;3.30;;;1.20;;
8694;SDS011;65580;49.446;6.854;2023-06-26T21:36:23;6.10;;;1.60;;
8694;SDS011;65580;49.446;6.854;2023-06-26T21:40:25;3.10;;;1.40;;
8694;SDS011;65580;49.446;6.854;2023-06-26T21:44:28;2.80;;;1.35;;
8694;SDS011;65580;49.446;6.854;2023-06-26T21:48:34;5.47;;;1.75;;
8694;SDS011;65580;49.446;6.854;2023-06-26T21:52:37;4.15;;;1.42;;
8694;SDS011;65580;49.446;6.854;2023-06-26T21:56:40;4.45;;;1.60;;
8694;SDS011;65580;49.446;6.854;2023-06-26T22:00:42;3.08;;;1.50;;
8694;SDS011;65580;49.446;6.854;2023-06-26T22:04:47;3.70;;;1.40;;
8694;SDS011;65580;49.446;6.854;2023-06-26T22:08:50;2.05;;;1.33;;
8694;SDS011;65580;49.446;6.854;2023-06-26T22:12:53;3.65;;;1.55;;
8694;SDS011;65580;49.446;6.854;2023-06-26T22:16:55;3.58;;;1.40;;
8694;SDS011;65580;49.446;6.854;2023-06-26T22:20:59;3.13;;;1.30;;
8694;SDS011;65580;49.446;6.854;2023-06-26T22:25:02;2.88;;;1.50;;
8694;SDS011;65580;49.446;6.854;2023-06-26T22:29:06;3.20;;;1.30;;
8694;SDS011;65580;49.446;6.854;2023-06-26T22:33:09;6.82;;;1.70;;
8694;SDS011;65580;49.446;6.854;2023-06-26T22:37:14;4.78;;;1.40;;
8694;SDS011;65580;49.446;6.854;2023-06-26T22:41:16;1.30;;;1.20;;
8694;SDS011;65580;49.446;6.854;2023-06-26T22:45:19;5.30;;;1.58;;
8694;SDS011;65580;49.446;6.854;2023-06-26T22:49:22;4.15;;;1.50;;
8694;SDS011;65580;49.446;6.854;2023-06-26T22:53:27;2.30;;;1.38;;
8694;SDS011;65580;49.446;6.854;2023-06-26T22:57:30;5.13;;;1.42;;
8694;SDS011;65580;49.446;6.854;2023-06-26T23:01:33;3.42;;;1.30;;
8694;SDS011;65580;49.446;6.854;2023-06-26T23:05:38;3.05;;;1.30;;
8694;SDS011;65580;49.446;6.854;2023-06-26T23:09:43;4.15;;;1.35;;
8694;SDS011;65580;49.446;6.854;2023-06-26T23:13:46;3.35;;;1.38;;
8694;SDS011;65580;49.446;6.854;2023-06-26T23:17:49;3.92;;;1.30;;
8694;SDS011;65580;49.446;6.854;2023-06-26T23:21:52;3.75;;;1.40;;
8694;SDS011;65580;49.446;6.854;2023-06-26T23:25:57;3.95;;;1.48;;
8694;SDS011;65580;49.446;6.854;2023-06-26T23:30:00;3.70;;;1.42;;
8694;SDS011;65580;49.446;6.854;2023-06-26T23:34:05;4.03;;;1.55;;
8694;SDS011;65580;49.446;6.854;2023-06-26T23:38:09;4.85;;;1.77;;
8694;SDS011;65580;49.446;6.854;2023-06-26T23:42:14;4.82;;;1.83;;
8694;SDS011;65580;49.446;6.854;2023-06-26T23:46:18;3.33;;;1.50;;
8694;SDS011;65580;49.446;6.854;2023-06-26T23:50:20;4.13;;;1.60;;
8694;SDS011;65580;49.446;6.854;2023-06-26T23:54:24;5.68;;;1.60;;
8694;SDS011;65580;49.446;6.854;2023-06-26T23:58:28;4.28;;;1.58;;
